createdAt,value
2023-04-06T00:00:29.750Z,99.90
2023-04-06T00:02:58.146Z,99.90
2023-04-06T00:05:27.771Z,99.90
2023-04-06T00:07:57.009Z,99.90
2023-04-06T00:10:25.814Z,99.90
2023-04-06T00:12:54.553Z,99.90
2023-04-06T00:15:24.585Z,99.90
2023-04-06T00:17:53.055Z,99.90
2023-04-06T00:20:21.824Z,99.90
2023-04-06T00:22:50.605Z,99.90
2023-04-06T00:25:19.466Z,99.90
2023-04-06T00:27:47.911Z,99.90
2023-04-06T00:30:16.728Z,99.90
2023-04-06T00:32:46.488Z,99.90
2023-04-06T00:35:16.073Z,99.90
2023-04-06T00:37:44.613Z,99.90
2023-04-06T00:40:13.697Z,99.90
2023-04-06T00:42:42.969Z,99.90
2023-04-06T00:45:12.527Z,99.90
2023-04-06T00:47:40.997Z,99.90
2023-04-06T00:50:12.169Z,99.90
2023-04-06T00:52:40.595Z,99.90
2023-04-06T00:55:09.639Z,99.90
2023-04-06T00:57:38.761Z,99.90
2023-04-06T01:00:08.474Z,99.90
2023-04-06T01:02:37.332Z,99.90
2023-04-06T01:05:06.504Z,99.90
2023-04-06T01:07:36.172Z,99.90
2023-04-06T01:10:05.053Z,99.90
2023-04-06T01:12:33.699Z,99.90
2023-04-06T01:15:06.009Z,99.90
2023-04-06T01:17:34.680Z,99.90
2023-04-06T01:20:04.054Z,99.90
2023-04-06T01:22:34.951Z,99.90
2023-04-06T01:25:04.173Z,99.90
2023-04-06T01:27:32.740Z,99.90
2023-04-06T01:30:01.593Z,99.90
2023-04-06T01:32:30.484Z,99.90
2023-04-06T01:34:59.172Z,99.90
2023-04-06T01:37:27.626Z,99.90
2023-04-06T01:39:58.892Z,99.90
2023-04-06T01:42:27.756Z,99.90
2023-04-06T01:44:56.413Z,99.90
2023-04-06T01:47:24.838Z,99.90
2023-04-06T01:49:53.198Z,99.90
2023-04-06T01:52:21.982Z,99.90
2023-04-06T01:54:50.641Z,99.90
2023-04-06T01:57:21.085Z,99.90
2023-04-06T01:59:49.448Z,99.90
2023-04-06T02:02:17.938Z,99.90
2023-04-06T02:04:46.446Z,99.90
2023-04-06T02:07:14.701Z,99.90
2023-04-06T02:09:43.038Z,99.90
2023-04-06T02:12:11.427Z,99.90
2023-04-06T02:14:41.353Z,99.90
2023-04-06T02:17:11.317Z,99.90
2023-04-06T02:19:39.508Z,99.90
2023-04-06T02:22:07.746Z,99.90
2023-04-06T02:24:36.588Z,99.90
2023-04-06T02:27:06.280Z,99.90
2023-04-06T02:29:37.392Z,99.90
2023-04-06T02:32:07.804Z,99.90
2023-04-06T02:34:36.066Z,99.90
2023-04-06T02:37:04.590Z,99.90
2023-04-06T02:39:33.402Z,99.90
2023-04-06T02:42:01.915Z,99.90
2023-04-06T02:44:30.355Z,99.90
2023-04-06T02:46:58.632Z,99.90
2023-04-06T02:49:28.883Z,99.90
2023-04-06T02:51:57.247Z,99.90
2023-04-06T02:54:26.033Z,99.90
2023-04-06T02:56:54.729Z,99.90
2023-04-06T02:59:23.617Z,99.90
2023-04-06T03:01:52.397Z,99.90
2023-04-06T03:04:20.806Z,99.90
2023-04-06T03:06:51.108Z,99.90
2023-04-06T03:09:19.513Z,99.90
2023-04-06T03:11:47.994Z,99.90
2023-04-06T03:14:18.345Z,99.90
2023-04-06T03:16:46.662Z,99.90
2023-04-06T03:19:18.181Z,99.90
2023-04-06T03:21:46.770Z,99.90
2023-04-06T03:24:16.710Z,99.90
2023-04-06T03:26:45.342Z,99.90
2023-04-06T03:29:13.688Z,99.90
2023-04-06T03:31:42.244Z,99.90
2023-04-06T03:34:10.619Z,99.90
2023-04-06T03:36:38.942Z,99.90
2023-04-06T03:39:07.670Z,99.90
2023-04-06T03:41:40.326Z,99.90
2023-04-06T03:44:08.819Z,99.90
2023-04-06T03:46:37.330Z,99.90
2023-04-06T03:49:06.236Z,99.90
2023-04-06T03:51:35.408Z,99.90
2023-04-06T03:54:03.886Z,99.90
2023-04-06T03:56:32.783Z,99.90
2023-04-06T03:59:03.520Z,99.90
2023-04-06T04:01:31.912Z,99.90
2023-04-06T04:04:01.240Z,99.90
2023-04-06T04:06:29.545Z,99.90
2023-04-06T04:08:57.860Z,99.90
2023-04-06T04:11:26.573Z,99.90
2023-04-06T04:13:55.982Z,99.90
2023-04-06T04:16:26.257Z,99.90
2023-04-06T04:18:55.096Z,99.90
2023-04-06T04:21:23.449Z,99.90
2023-04-06T04:23:51.876Z,99.90
2023-04-06T04:26:20.941Z,99.90
2023-04-06T04:28:49.684Z,99.90
2023-04-06T04:31:19.188Z,99.90
2023-04-06T04:33:48.917Z,99.90
2023-04-06T04:36:17.508Z,99.90
2023-04-06T04:38:46.176Z,99.90
2023-04-06T04:41:14.452Z,99.90
2023-04-06T04:43:43.743Z,99.90
2023-04-06T04:46:12.514Z,99.90
2023-04-06T04:48:41.242Z,99.90
2023-04-06T04:51:10.961Z,99.90
2023-04-06T04:53:39.249Z,99.90
2023-04-06T04:56:08.740Z,99.90
2023-04-06T04:58:37.086Z,99.90
2023-04-06T05:01:05.722Z,99.90
2023-04-06T05:03:36.698Z,99.90
2023-04-06T05:06:05.730Z,99.90
2023-04-06T05:08:36.233Z,99.90
2023-04-06T05:11:05.451Z,99.90
2023-04-06T05:13:34.856Z,99.90
2023-04-06T05:16:03.348Z,99.90
2023-04-06T05:18:31.736Z,99.90
2023-04-06T05:20:59.979Z,99.90
2023-04-06T05:23:28.294Z,99.90
2023-04-06T05:25:58.286Z,99.90
2023-04-06T05:28:26.933Z,99.90
2023-04-06T05:30:58.984Z,99.90
2023-04-06T05:33:30.103Z,99.90
2023-04-06T05:36:01.849Z,99.90
2023-04-06T05:38:30.476Z,99.90
2023-04-06T05:41:00.104Z,99.90
2023-04-06T05:43:28.522Z,99.90
2023-04-06T05:45:56.809Z,99.90
2023-04-06T05:48:25.304Z,99.90
2023-04-06T05:50:54.089Z,99.90
2023-04-06T05:53:22.916Z,99.90
2023-04-06T05:55:51.457Z,99.90
2023-04-06T05:58:21.763Z,99.90
2023-04-06T06:00:53.026Z,99.90
2023-04-06T06:03:23.738Z,99.90
2023-04-06T06:05:52.342Z,99.90
2023-04-06T06:08:20.727Z,99.90
2023-04-06T06:10:49.144Z,99.90
2023-04-06T06:13:17.631Z,99.90
2023-04-06T06:15:47.525Z,99.90
2023-04-06T06:18:16.396Z,99.90
2023-04-06T06:20:45.110Z,99.90
2023-04-06T06:23:13.643Z,99.90
2023-04-06T06:25:42.046Z,99.90
2023-04-06T06:28:10.578Z,99.90
2023-04-06T06:30:38.895Z,99.90
2023-04-06T06:33:09.029Z,99.90
2023-04-06T06:35:37.464Z,99.90
2023-04-06T06:38:06.750Z,99.90
2023-04-06T06:40:36.879Z,99.90
2023-04-06T06:43:05.692Z,99.90
2023-04-06T06:45:36.983Z,99.90
2023-04-06T06:48:05.675Z,99.90
2023-04-06T06:50:35.643Z,99.90
2023-04-06T06:53:04.136Z,99.90
2023-04-06T06:55:32.538Z,99.90
2023-04-06T06:58:01.318Z,99.90
2023-04-06T07:00:29.754Z,99.90
2023-04-06T07:02:58.530Z,99.90
2023-04-06T07:05:29.147Z,99.90
2023-04-06T07:07:59.434Z,99.90
2023-04-06T07:10:28.934Z,99.90
2023-04-06T07:12:57.505Z,99.90
2023-04-06T07:15:26.485Z,99.90
2023-04-06T07:17:55.898Z,99.90
2023-04-06T07:20:24.804Z,99.90
2023-04-06T07:22:53.312Z,99.90
2023-04-06T07:25:25.235Z,99.90
2023-04-06T07:27:54.198Z,99.90
2023-04-06T07:30:23.393Z,99.90
2023-04-06T07:32:52.266Z,99.90
2023-04-06T07:35:21.105Z,99.90
2023-04-06T07:37:49.444Z,99.90
2023-04-06T07:40:17.944Z,99.90
2023-04-06T07:42:47.764Z,99.90
2023-04-06T07:45:16.911Z,99.90
2023-04-06T07:47:45.478Z,99.90
2023-04-06T07:50:14.513Z,99.90
2023-04-06T07:52:43.093Z,99.90
2023-04-06T07:55:12.077Z,99.90
2023-04-06T07:57:40.395Z,99.90
2023-04-06T08:00:14.265Z,99.90
2023-04-06T08:02:43.415Z,99.90
2023-04-06T08:05:12.275Z,99.90
2023-04-06T08:07:42.671Z,99.90
2023-04-06T08:10:12.279Z,99.90
2023-04-06T08:12:41.459Z,99.90
2023-04-06T08:15:12.106Z,99.90
2023-04-06T08:17:40.770Z,99.90
2023-04-06T08:20:10.056Z,99.90
2023-04-06T08:22:38.634Z,99.90
2023-04-06T08:25:08.087Z,99.90
2023-04-06T08:27:36.556Z,99.90
2023-04-06T08:30:05.602Z,99.90
2023-04-06T08:32:35.939Z,99.90
2023-04-06T08:35:04.974Z,99.90
2023-04-06T08:37:33.843Z,99.90
2023-04-06T08:40:02.191Z,99.90
2023-04-06T08:42:33.967Z,99.90
2023-04-06T08:45:02.788Z,99.90
2023-04-06T08:47:31.333Z,99.90
2023-04-06T08:50:04.304Z,99.90
2023-04-06T08:52:34.460Z,99.90
2023-04-06T08:55:03.122Z,99.90
2023-04-06T08:57:32.325Z,99.90
2023-04-06T09:00:02.663Z,99.90
2023-04-06T09:02:32.163Z,99.90
2023-04-06T09:05:03.781Z,99.90
2023-04-06T09:07:33.116Z,99.90
2023-04-06T09:10:01.446Z,99.90
2023-04-06T09:12:31.192Z,99.90
2023-04-06T09:15:01.067Z,99.90
2023-04-06T09:17:30.960Z,99.90
2023-04-06T09:20:01.579Z,99.90
2023-04-06T09:22:38.580Z,99.90
2023-04-06T09:25:08.679Z,99.90
2023-04-06T09:27:38.645Z,99.90
2023-04-06T09:30:11.553Z,99.90
2023-04-06T09:32:50.825Z,99.90
2023-04-06T09:35:22.200Z,99.90
2023-04-06T09:37:52.844Z,97.30
2023-04-06T09:40:23.171Z,97.30
2023-04-06T09:42:53.543Z,99.70
2023-04-06T09:45:22.265Z,99.30
2023-04-06T09:47:52.835Z,97.20
2023-04-06T09:50:24.266Z,96.80
2023-04-06T09:52:55.588Z,93.70
2023-04-06T09:55:29.574Z,93.20
2023-04-06T09:58:07.658Z,93.60
2023-04-06T10:00:45.392Z,93.00
2023-04-06T10:03:23.203Z,94.20
2023-04-06T10:05:59.693Z,92.20
2023-04-06T10:08:33.137Z,91.30
2023-04-06T10:11:02.811Z,94.10
2023-04-06T10:13:32.602Z,93.30
2023-04-06T10:16:05.038Z,92.90
2023-04-06T10:18:33.982Z,91.40
2023-04-06T10:21:09.225Z,93.20
2023-04-06T10:23:42.095Z,91.10
2023-04-06T10:26:17.420Z,91.10
2023-04-06T10:28:47.557Z,93.00
2023-04-06T10:31:16.247Z,93.50
2023-04-06T10:33:55.477Z,90.90
2023-04-06T10:36:27.508Z,91.10
2023-04-06T10:39:00.360Z,91.80
2023-04-06T10:41:36.007Z,92.40
2023-04-06T10:44:04.941Z,91.30
2023-04-06T10:46:35.277Z,89.20
2023-04-06T10:49:14.070Z,89.20
2023-04-06T10:51:43.697Z,88.20
2023-04-06T10:54:16.095Z,89.70
2023-04-06T10:56:44.646Z,89.80
2023-04-06T10:59:13.352Z,92.50
2023-04-06T11:01:47.070Z,88.40
2023-04-06T11:04:19.069Z,92.10
2023-04-06T11:06:51.226Z,84.60
2023-04-06T11:09:40.709Z,88.70
2023-04-06T11:12:09.766Z,87.00
2023-04-06T11:14:38.206Z,88.10
2023-04-06T11:17:07.345Z,84.90
2023-04-06T11:19:36.892Z,91.20
2023-04-06T11:22:10.508Z,88.70
2023-04-06T11:24:39.479Z,84.80
2023-04-06T11:27:08.818Z,90.40
2023-04-06T11:29:44.202Z,90.10
2023-04-06T11:32:12.576Z,86.80
2023-04-06T11:34:42.021Z,88.30
2023-04-06T11:37:13.228Z,85.20
2023-04-06T11:39:42.805Z,86.60
2023-04-06T11:42:11.478Z,87.00
2023-04-06T11:44:41.200Z,88.00
2023-04-06T11:47:11.722Z,88.10
2023-04-06T11:49:42.476Z,87.60
2023-04-06T11:52:19.763Z,84.80
2023-04-06T11:54:49.067Z,85.20
2023-04-06T11:57:17.759Z,85.00
2023-04-06T11:59:46.819Z,85.60
2023-04-06T12:02:15.295Z,83.60
2023-04-06T12:04:46.871Z,87.50
2023-04-06T12:15:20.057Z,89.30
2023-04-06T12:17:48.549Z,85.60
2023-04-06T12:20:26.002Z,86.00
2023-04-06T12:22:55.217Z,86.00
2023-04-06T12:25:32.352Z,83.50
2023-04-06T12:28:01.792Z,85.10
2023-04-06T12:30:31.550Z,83.60
2023-04-06T12:33:00.042Z,79.40
2023-04-06T12:35:28.724Z,81.50
2023-04-06T12:37:57.158Z,82.40
2023-04-06T12:40:25.576Z,82.20
2023-04-06T12:42:53.978Z,84.60
2023-04-06T12:45:22.266Z,85.60
2023-04-06T12:47:54.048Z,82.90
2023-04-06T12:50:22.297Z,82.70
2023-04-06T12:52:51.131Z,84.70
2023-04-06T12:55:19.891Z,86.20
2023-04-06T12:57:55.028Z,87.70
2023-04-06T13:00:25.576Z,89.70
2023-04-06T13:02:55.586Z,88.80
2023-04-06T13:05:24.017Z,86.90
2023-04-06T13:07:52.414Z,89.10
2023-04-06T13:10:20.878Z,87.50
2023-04-06T13:12:49.817Z,88.20
2023-04-06T13:15:18.842Z,89.00
2023-04-06T13:17:47.485Z,86.00
2023-04-06T13:20:17.685Z,85.20
2023-04-06T13:22:46.504Z,88.10
2023-04-06T13:25:14.831Z,86.10
2023-04-06T13:27:47.186Z,84.50
2023-04-06T13:30:17.844Z,88.20
2023-04-06T13:32:46.392Z,90.00
2023-04-06T13:35:16.385Z,85.40
2023-04-06T13:37:45.002Z,87.50
2023-04-06T13:40:14.456Z,87.10
2023-04-06T13:42:45.000Z,90.40
2023-04-06T13:45:13.582Z,86.20
2023-04-06T13:47:42.237Z,85.30
2023-04-06T13:50:11.412Z,90.00
2023-04-06T13:52:41.079Z,88.40
2023-04-06T13:55:10.025Z,88.20
2023-04-06T13:57:38.826Z,86.80
2023-04-06T14:00:08.520Z,87.80
2023-04-06T14:02:37.196Z,87.80
2023-04-06T14:05:05.962Z,86.80
2023-04-06T14:07:34.518Z,89.10
2023-04-06T14:10:04.639Z,89.60
2023-04-06T14:12:33.204Z,89.10
2023-04-06T14:15:01.572Z,88.40
2023-04-06T14:17:29.761Z,86.80
2023-04-06T14:19:58.068Z,83.30
2023-04-06T14:22:27.079Z,82.50
2023-04-06T14:24:55.584Z,83.70
2023-04-06T14:27:25.449Z,85.30
2023-04-06T14:29:54.685Z,85.00
2023-04-06T14:32:23.997Z,82.60
2023-04-06T14:34:52.915Z,85.70
2023-04-06T14:37:22.255Z,84.20
2023-04-06T14:39:50.500Z,86.90
2023-04-06T14:42:19.110Z,86.80
2023-04-06T14:44:49.766Z,87.30
2023-04-06T14:47:22.460Z,85.70
2023-04-06T14:49:52.888Z,80.80
2023-04-06T14:52:21.402Z,79.40
2023-04-06T14:54:49.541Z,80.90
2023-04-06T14:57:17.744Z,77.50
2023-04-06T14:59:46.320Z,82.20
2023-04-06T15:02:16.701Z,82.80
2023-04-06T15:04:45.349Z,83.80
2023-04-06T15:07:13.605Z,85.50
2023-04-06T15:09:42.005Z,87.50
2023-04-06T15:12:10.290Z,83.50
2023-04-06T15:14:38.576Z,85.40
2023-04-06T15:17:07.108Z,82.40
2023-04-06T15:19:37.218Z,84.80
2023-04-06T15:22:06.758Z,82.90
2023-04-06T15:24:36.138Z,83.20
2023-04-06T15:27:04.460Z,83.40
2023-04-06T15:29:32.797Z,85.50
2023-04-06T15:32:00.956Z,86.70
2023-04-06T15:34:31.363Z,84.90
2023-04-06T15:37:04.843Z,84.50
2023-04-06T15:39:33.396Z,83.20
2023-04-06T15:42:01.863Z,84.30
2023-04-06T15:44:30.040Z,85.10
2023-04-06T15:46:58.161Z,82.90
2023-04-06T15:49:26.498Z,87.00
2023-04-06T15:51:54.606Z,86.60
2023-04-06T15:54:26.969Z,86.30
2023-04-06T15:56:55.214Z,85.70
2023-04-06T15:59:23.378Z,87.10
2023-04-06T16:01:53.525Z,85.30
2023-04-06T16:04:22.408Z,86.10
2023-04-06T16:06:50.683Z,87.80
2023-04-06T16:09:18.909Z,87.30
2023-04-06T16:11:48.640Z,88.20
2023-04-06T16:14:19.920Z,88.70
2023-04-06T16:16:51.155Z,87.30
2023-04-06T16:19:20.411Z,87.90
2023-04-06T16:21:48.731Z,88.00
2023-04-06T16:24:17.415Z,87.80
2023-04-06T16:26:46.535Z,90.00
2023-04-06T16:29:17.233Z,90.80
2023-04-06T16:31:47.871Z,91.30
2023-04-06T16:34:16.358Z,91.60
2023-04-06T16:36:44.527Z,90.90
2023-04-06T16:39:12.908Z,91.20
2023-04-06T16:41:41.237Z,91.40
2023-04-06T16:44:11.001Z,90.50
2023-04-06T16:46:41.760Z,90.50
2023-04-06T16:49:10.064Z,90.50
2023-04-06T16:51:38.420Z,91.10
2023-04-06T16:54:06.706Z,91.50
2023-04-06T16:56:35.039Z,92.20
2023-04-06T16:59:03.538Z,92.40
2023-04-06T17:01:31.875Z,92.40
2023-04-06T17:04:02.045Z,92.60
2023-04-06T17:06:31.131Z,92.00
2023-04-06T17:09:00.740Z,91.80
2023-04-06T17:11:36.120Z,92.00
2023-04-06T17:14:14.760Z,91.50
2023-04-06T17:16:43.020Z,91.80
2023-04-06T17:19:12.825Z,92.40
2023-04-06T17:21:42.132Z,92.60
2023-04-06T17:24:11.024Z,92.80
2023-04-06T17:26:40.492Z,93.20
2023-04-06T17:29:08.735Z,93.70
2023-04-06T17:31:37.098Z,93.50
2023-04-06T17:34:05.884Z,94.10
2023-04-06T17:36:35.569Z,94.60
2023-04-06T17:39:03.901Z,93.70
2023-04-06T17:41:34.449Z,96.10
2023-04-06T17:44:02.722Z,96.00
2023-04-06T17:46:31.121Z,96.30
2023-04-06T17:48:59.351Z,96.80
2023-04-06T17:51:27.853Z,98.40
2023-04-06T17:53:58.057Z,97.90
2023-04-06T17:56:27.797Z,99.40
2023-04-06T17:58:58.989Z,99.40
2023-04-06T18:01:35.674Z,99.90
2023-04-06T18:04:26.348Z,99.90
2023-04-06T18:07:16.936Z,99.90
2023-04-06T18:09:52.652Z,99.90
2023-04-06T18:15:41.768Z,99.90
2023-04-06T18:18:10.312Z,99.90
2023-04-06T18:20:41.884Z,99.90
2023-04-06T18:23:10.768Z,99.90
2023-04-06T18:25:41.631Z,99.90
2023-04-06T18:28:10.718Z,99.90
2023-04-06T18:30:39.158Z,99.90
2023-04-06T18:33:07.885Z,99.90
2023-04-06T18:35:36.939Z,99.90
2023-04-06T18:38:05.518Z,99.90
2023-04-06T18:40:35.857Z,99.90
2023-04-06T18:43:07.169Z,99.90
2023-04-06T18:45:38.671Z,99.90
2023-04-06T18:48:07.828Z,99.90
2023-04-06T18:50:36.251Z,99.90
2023-04-06T18:53:04.804Z,99.90
2023-04-06T18:55:34.448Z,99.90
2023-04-06T18:58:03.011Z,99.90
2023-04-06T19:00:32.946Z,99.90
2023-04-06T19:03:02.363Z,99.90
2023-04-06T19:05:30.901Z,99.90
2023-04-06T19:07:59.292Z,99.90
2023-04-06T19:10:29.574Z,99.90
2023-04-06T19:12:58.573Z,99.90
2023-04-06T19:15:26.816Z,99.90
2023-04-06T19:17:56.470Z,99.90
2023-04-06T19:20:24.761Z,99.90
2023-04-06T19:25:26.654Z,99.90
2023-04-06T19:27:55.335Z,99.90
2023-04-06T19:30:24.475Z,99.90
2023-04-06T19:32:53.039Z,99.90
2023-04-06T19:35:23.133Z,99.90
2023-04-06T19:37:51.571Z,99.90
2023-04-06T19:40:19.764Z,99.90
2023-04-06T19:42:48.232Z,99.90
2023-04-06T19:45:16.503Z,99.90
2023-04-06T19:47:44.807Z,99.90
2023-04-06T19:50:13.113Z,99.90
2023-04-06T19:52:42.804Z,99.90
2023-04-06T19:55:11.684Z,99.90
2023-04-06T19:57:40.108Z,99.90
2023-04-06T20:00:09.670Z,99.90
2023-04-06T20:02:44.433Z,99.90
2023-04-06T20:05:15.939Z,99.90
2023-04-06T20:07:45.867Z,99.90
2023-04-06T20:10:15.427Z,99.90
2023-04-06T20:12:44.197Z,99.90
2023-04-06T20:15:13.474Z,99.90
2023-04-06T20:17:42.845Z,99.90
2023-04-06T20:20:12.697Z,99.90
2023-04-06T20:22:42.950Z,99.90
2023-04-06T20:25:20.289Z,99.90
2023-04-06T20:28:00.885Z,99.90
2023-04-06T20:30:34.075Z,99.90
2023-04-06T20:33:02.799Z,99.90
2023-04-06T20:35:31.849Z,99.90
2023-04-06T20:38:00.275Z,99.90
2023-04-06T20:40:30.501Z,99.90
2023-04-06T20:42:58.843Z,99.90
2023-04-06T20:45:27.400Z,99.90
2023-04-06T20:47:56.320Z,99.90
2023-04-06T20:50:25.622Z,99.90
2023-04-06T20:52:54.453Z,99.90
2023-04-06T20:55:22.682Z,99.90
2023-04-06T20:57:52.940Z,99.90
2023-04-06T21:00:22.277Z,99.90
2023-04-06T21:02:50.809Z,99.90
2023-04-06T21:05:21.003Z,99.90
2023-04-06T21:07:49.396Z,99.90
2023-04-06T21:10:17.740Z,99.90
2023-04-06T21:12:46.068Z,99.90
2023-04-06T21:15:15.758Z,99.90
2023-04-06T21:17:44.509Z,99.90
2023-04-06T21:20:12.902Z,99.90
2023-04-06T21:22:41.194Z,99.90
2023-04-06T21:25:11.822Z,99.90
2023-04-06T21:27:41.037Z,99.90
2023-04-06T21:30:18.224Z,99.90
2023-04-06T21:32:47.455Z,99.90
2023-04-06T21:35:16.889Z,99.90
2023-04-06T21:37:48.674Z,99.90
2023-04-06T21:40:19.047Z,99.90
2023-04-06T21:42:47.908Z,99.90
2023-04-06T21:45:17.923Z,99.90
2023-04-06T21:47:49.359Z,99.90
2023-04-06T21:50:18.438Z,99.90
2023-04-06T21:52:46.657Z,99.90
2023-04-06T21:55:15.199Z,99.90
2023-04-06T21:57:44.436Z,99.90
2023-04-06T22:00:13.964Z,99.90
2023-04-06T22:02:44.376Z,99.90
2023-04-06T22:05:12.874Z,99.90
2023-04-06T22:07:41.362Z,99.90
2023-04-06T22:10:10.251Z,99.90
2023-04-06T22:12:40.006Z,99.90
2023-04-06T22:15:10.052Z,99.90
2023-04-06T22:17:38.677Z,99.90
2023-04-06T22:20:09.049Z,99.90
2023-04-06T22:22:37.277Z,99.90
2023-04-06T22:25:06.118Z,99.90
2023-04-06T22:27:34.351Z,99.90
2023-04-06T22:30:02.819Z,99.90
2023-04-06T22:32:31.735Z,99.90
2023-04-06T22:35:00.043Z,99.90
2023-04-06T22:37:29.833Z,99.90
2023-04-06T22:39:58.916Z,99.90
2023-04-06T22:42:27.426Z,99.90
2023-04-06T22:44:56.085Z,99.90
2023-04-06T22:47:28.000Z,99.90
2023-04-06T22:49:56.510Z,99.90
2023-04-06T22:52:25.111Z,99.90
2023-04-06T22:54:55.008Z,99.90
2023-04-06T22:57:23.541Z,99.90
2023-04-06T22:59:51.760Z,99.90
2023-04-06T23:02:20.448Z,99.90
2023-04-06T23:04:52.188Z,99.90
2023-04-06T23:07:20.728Z,99.90
2023-04-06T23:09:52.275Z,99.90
2023-04-06T23:12:23.559Z,99.90
2023-04-06T23:14:51.810Z,99.90
2023-04-06T23:17:20.455Z,99.90
2023-04-06T23:19:48.796Z,99.90
2023-04-06T23:22:17.371Z,99.90
2023-04-06T23:24:46.324Z,99.90
2023-04-06T23:27:14.558Z,99.90
2023-04-06T23:29:44.432Z,99.90
2023-04-06T23:32:13.025Z,99.90
2023-04-06T23:34:41.830Z,99.90
2023-04-06T23:37:10.137Z,99.90
2023-04-06T23:39:39.473Z,99.90
2023-04-06T23:42:08.499Z,99.90
2023-04-06T23:44:36.711Z,99.90
2023-04-06T23:47:06.619Z,99.90
2023-04-06T23:49:35.121Z,99.90
2023-04-06T23:52:03.925Z,99.90
2023-04-06T23:54:32.651Z,99.90
2023-04-06T23:57:04.529Z,99.90
2023-04-06T23:59:33.045Z,99.90
